Time;durP1;ratioP1;P1;durP2;ratioP2;P2;SDS_P1;SDS_P2;PMS_P1;PMS_P2;Temp;Humidity;BMP_temperature;BMP_pressure;BME280_temperature;BME280_humidity;BME280_pressure;Samples;Min_cycle;Max_cycle;Signal;HPM_P1;HPM_P2
2022/01/27 00:13:17;;;;;;;35.60;19.77;;;5.50;99.90;;;;;;5002593;28;20058;-47
2022/01/27 00:15:47;;;;;;;33.92;19.55;;;5.50;99.90;;;;;;5006468;28;20052;-47
2022/01/27 00:18:18;;;;;;;34.97;19.95;;;5.50;99.90;;;;;;5000911;28;20048;-47
2022/01/27 00:20:49;;;;;;;39.08;19.95;;;5.50;99.90;;;;;;5002537;28;20137;-47
2022/01/27 00:23:15;;;;;;;38.60;20.02;;;5.50;99.90;;;;;;5002243;28;20068;-46
2022/01/27 00:25:41;;;;;;;38.80;21.98;;;5.50;99.90;;;;;;5001429;28;20504;-46
2022/01/27 00:28:08;;;;;;;35.28;19.80;;;5.50;99.90;;;;;;5002421;28;20052;-48
2022/01/27 00:30:35;;;;;;;37.35;21.33;;;5.50;99.90;;;;;;5002402;28;20034;-47
2022/01/27 00:33:03;;;;;;;33.30;19.33;;;5.40;99.90;;;;;;5001253;28;20045;-47
2022/01/27 00:35:30;;;;;;;39.35;21.10;;;5.50;99.90;;;;;;5000875;28;20433;-50
2022/01/27 00:37:56;;;;;;;38.13;21.13;;;5.40;99.90;;;;;;5001598;28;20101;-46
2022/01/27 00:40:22;;;;;;;42.50;22.88;;;5.40;99.90;;;;;;5000645;28;20050;-46
2022/01/27 00:42:48;;;;;;;40.13;21.00;;;5.40;99.90;;;;;;5000888;28;20463;-48
2022/01/27 00:45:14;;;;;;;33.83;21.38;;;5.40;99.90;;;;;;5001625;28;20100;-46
2022/01/27 00:47:40;;;;;;;38.53;21.77;;;5.40;99.90;;;;;;5002005;28;20544;-48
2022/01/27 00:50:06;;;;;;;36.53;22.75;;;5.30;99.90;;;;;;5002179;28;20165;-48
2022/01/27 00:52:43;;;;;;;32.05;22.60;;;5.30;99.90;;;;;;5000697;28;20048;-47
2022/01/27 00:55:12;;;;;;;32.53;21.83;;;5.30;99.90;;;;;;5002499;28;20054;-47
2022/01/27 01:00:07;;;;;;;44.40;23.80;;;5.30;99.90;;;;;;4998946;28;20053;-48
2022/01/27 01:02:50;;;;;;;37.10;22.17;;;5.30;99.90;;;;;;4999990;28;20133;-48
2022/01/27 01:07:52;;;;;;;42.63;23.88;;;5.20;99.90;;;;;;5004243;28;20080;-47
2022/01/27 01:16:00;;;;;;;39.30;25.42;;;5.20;99.90;;;;;;4952126;28;20051;-48
2022/01/27 01:29:53;;;;;;;37.30;25.08;;;5.10;99.90;;;;;;4951544;28;20043;-46
2022/01/27 01:34:53;;;;;;;39.58;24.70;;;5.10;99.90;;;;;;4931415;28;20122;-47
2022/01/27 01:37:20;;;;;;;40.92;24.20;;;5.10;99.90;;;;;;4951698;28;20058;-46
2022/01/27 01:39:45;;;;;;;36.28;23.85;;;5.10;99.90;;;;;;4946202;28;20062;-47
2022/01/27 01:42:12;;;;;;;39.25;26.00;;;5.00;99.90;;;;;;4944646;28;20051;-47
2022/01/27 01:44:39;;;;;;;39.90;25.40;;;5.00;99.90;;;;;;4979912;28;20092;-46
2022/01/27 01:47:05;;;;;;;41.15;26.55;;;5.00;99.90;;;;;;5002763;28;20523;-47
2022/01/27 01:49:31;;;;;;;47.95;27.35;;;4.90;99.90;;;;;;5004682;28;20053;-49
2022/01/27 01:52:05;;;;;;;45.70;27.02;;;4.90;99.90;;;;;;5004499;28;20045;-49
2022/01/27 01:54:31;;;;;;;49.25;27.60;;;4.90;99.90;;;;;;5004099;28;20123;-48
2022/01/27 01:56:57;;;;;;;41.13;25.10;;;4.90;99.90;;;;;;5003454;28;20152;-46
2022/01/27 01:59:23;;;;;;;46.13;27.50;;;4.90;99.90;;;;;;5004030;28;20054;-48
2022/01/27 02:01:48;;;;;;;42.72;25.42;;;4.90;99.90;;;;;;4998137;28;20061;-49
2022/01/27 02:04:14;;;;;;;44.78;25.77;;;4.80;99.90;;;;;;5005772;28;20048;-47
2022/01/27 02:06:49;;;;;;;41.30;27.30;;;4.80;99.90;;;;;;5002499;28;20148;-48
2022/01/27 02:20:05;;;;;;;47.05;26.77;;;4.80;99.90;;;;;;4995132;28;20088;-49
2022/01/27 02:22:31;;;;;;;37.88;27.58;;;4.80;99.90;;;;;;4984790;28;20045;-48
2022/01/27 02:24:57;;;;;;;43.70;28.83;;;4.80;99.90;;;;;;5001351;28;20389;-50
2022/01/27 02:27:26;;;;;;;49.58;29.80;;;4.80;99.90;;;;;;5002886;28;20049;-49
2022/01/27 02:29:52;;;;;;;42.63;27.27;;;4.90;99.90;;;;;;5003442;28;20045;-50
2022/01/27 02:32:19;;;;;;;50.85;28.92;;;5.00;99.90;;;;;;4997352;28;20096;-47
2022/01/27 02:34:45;;;;;;;41.88;28.33;;;5.00;99.90;;;;;;5003046;28;20064;-48
2022/01/27 02:37:12;;;;;;;49.53;30.52;;;5.10;99.90;;;;;;4997016;28;20046;-47
2022/01/27 02:39:38;;;;;;;53.70;30.83;;;5.10;99.90;;;;;;5002150;28;20061;-47
2022/01/27 02:42:10;;;;;;;50.80;29.13;;;5.20;99.90;;;;;;5002297;28;20464;-46
2022/01/27 02:44:54;;;;;;;49.42;29.05;;;5.20;99.90;;;;;;5001022;28;20524;-47
2022/01/27 02:47:22;;;;;;;43.42;28.92;;;5.20;99.90;;;;;;5003224;28;20053;-47
2022/01/27 02:49:48;;;;;;;47.00;28.77;;;5.20;99.90;;;;;;5002216;28;20049;-46
2022/01/27 02:52:15;;;;;;;44.85;28.77;;;5.30;99.90;;;;;;5001840;28;20566;-46
2022/01/27 02:54:41;;;;;;;44.08;27.95;;;5.30;99.90;;;;;;5006925;28;20495;-48
2022/01/27 02:57:07;;;;;;;45.42;28.63;;;5.30;99.90;;;;;;5003416;28;20064;-47
2022/01/27 02:59:34;;;;;;;43.85;28.08;;;5.40;99.90;;;;;;5001708;28;20041;-46
2022/01/27 03:02:03;;;;;;;48.38;27.23;;;5.40;99.90;;;;;;4998963;28;20152;-47
2022/01/27 03:04:30;;;;;;;45.05;29.70;;;5.40;99.90;;;;;;5001648;28;20049;-48
2022/01/27 03:06:57;;;;;;;44.47;28.42;;;5.40;99.90;;;;;;4998728;28;20050;-49
2022/01/27 03:09:23;;;;;;;44.92;28.25;;;5.40;99.90;;;;;;4999747;28;20504;-48
2022/01/27 03:11:58;;;;;;;46.38;27.77;;;5.40;99.90;;;;;;5004441;28;20132;-50
2022/01/27 03:14:25;;;;;;;47.65;28.48;;;5.40;99.90;;;;;;5003834;28;20092;-47
2022/01/27 03:16:59;;;;;;;50.80;30.08;;;5.40;99.90;;;;;;5014787;28;20049;-50
2022/01/27 03:19:26;;;;;;;44.22;28.13;;;5.40;99.90;;;;;;5002862;28;20046;-49
2022/01/27 03:21:53;;;;;;;48.28;29.45;;;5.40;99.90;;;;;;4994985;28;20401;-49
2022/01/27 03:24:24;;;;;;;50.47;27.95;;;5.40;99.90;;;;;;4998893;28;20054;-47
2022/01/27 03:26:51;;;;;;;44.60;27.02;;;5.40;99.90;;;;;;5001232;28;20057;-49
2022/01/27 03:29:18;;;;;;;50.30;27.20;;;5.40;99.90;;;;;;5002645;28;20128;-46
2022/01/27 03:31:45;;;;;;;46.65;25.17;;;5.40;99.90;;;;;;5001044;28;20137;-47
2022/01/27 03:34:12;;;;;;;44.60;27.75;;;5.40;99.90;;;;;;5000959;28;20050;-47
2022/01/27 03:36:38;;;;;;;43.30;24.88;;;5.40;99.90;;;;;;4995391;28;20064;-47
2022/01/27 03:39:04;;;;;;;38.55;23.25;;;5.50;99.90;;;;;;5001924;28;20050;-47
2022/01/27 03:41:33;;;;;;;42.58;25.00;;;5.50;99.90;;;;;;5000599;28;20046;-46
2022/01/27 03:43:59;;;;;;;44.05;25.30;;;5.50;99.90;;;;;;5000950;28;20050;-48
2022/01/27 03:46:25;;;;;;;43.88;25.40;;;5.50;99.90;;;;;;4999694;28;20148;-47
2022/01/27 03:48:51;;;;;;;44.03;25.52;;;5.50;99.90;;;;;;5002151;28;20053;-46
2022/01/27 03:51:17;;;;;;;38.35;23.40;;;5.50;99.90;;;;;;5001199;28;20420;-46
2022/01/27 03:53:42;;;;;;;46.90;25.10;;;5.50;99.90;;;;;;5005255;28;20112;-49
2022/01/27 03:56:08;;;;;;;45.75;23.92;;;5.50;99.90;;;;;;4994664;28;20369;-47
2022/01/27 03:58:34;;;;;;;47.35;25.55;;;5.50;99.90;;;;;;5002149;28;20049;-47
2022/01/27 04:01:02;;;;;;;38.97;22.90;;;5.60;99.90;;;;;;5002204;28;20127;-46
2022/01/27 04:03:30;;;;;;;45.08;24.52;;;5.60;99.90;;;;;;4998526;28;20050;-47
2022/01/27 04:06:03;;;;;;;45.22;23.70;;;5.60;99.90;;;;;;4998559;28;20407;-47
2022/01/27 04:08:29;;;;;;;40.45;24.58;;;5.50;99.90;;;;;;4990956;28;20056;-47
2022/01/27 04:10:56;;;;;;;50.30;24.77;;;5.60;99.90;;;;;;4997819;28;20050;-46
2022/01/27 04:13:21;;;;;;;41.15;23.92;;;5.60;99.90;;;;;;5001365;28;20144;-47
2022/01/27 04:15:47;;;;;;;41.22;24.48;;;5.60;99.90;;;;;;5007737;28;20654;-50
2022/01/27 04:18:14;;;;;;;44.47;24.00;;;5.60;99.90;;;;;;5001478;28;20045;-47
2022/01/27 04:20:41;;;;;;;42.95;24.10;;;5.60;99.90;;;;;;5001207;28;20049;-46
2022/01/27 04:23:07;;;;;;;46.80;23.90;;;5.60;99.90;;;;;;5000077;28;20435;-47
2022/01/27 04:25:33;;;;;;;46.70;24.33;;;5.60;99.90;;;;;;4999675;28;20050;-46
2022/01/27 04:28:04;;;;;;;40.60;23.08;;;5.60;99.90;;;;;;5000996;28;20145;-47
2022/01/27 04:30:31;;;;;;;48.47;24.08;;;5.60;99.90;;;;;;5002133;28;20049;-47
2022/01/27 04:32:59;;;;;;;40.67;22.25;;;5.60;99.90;;;;;;4992823;28;20342;-47
2022/01/27 04:35:28;;;;;;;43.70;22.05;;;5.60;99.90;;;;;;5008834;28;20064;-46
2022/01/27 04:38:18;;;;;;;43.08;22.17;;;5.60;99.90;;;;;;5004971;28;20556;-46
2022/01/27 04:43:59;;;;;;;;;;;5.70;99.90;;;;;;5004327;28;20053;-50
2022/01/27 04:46:25;;;;;;;43.38;21.95;;;5.70;99.90;;;;;;4997699;28;19925;-46
2022/01/27 04:48:55;;;;;;;44.42;21.13;;;5.70;99.90;;;;;;5005442;28;20070;-46
2022/01/27 04:51:23;;;;;;;43.85;20.95;;;5.70;99.90;;;;;;5006133;28;20053;-48
2022/01/27 04:56:17;;;;;;;43.08;22.35;;;5.80;99.90;;;;;;5004167;28;20162;-46
2022/01/27 04:58:46;;;;;;;38.55;20.88;;;5.80;99.90;;;;;;5004930;28;20403;-47
2022/01/27 05:01:12;;;;;;;43.17;22.23;;;5.80;99.90;;;;;;5005155;28;20046;-48
2022/01/27 05:03:47;;;;;;;40.97;22.42;;;5.80;99.90;;;;;;4997063;28;20080;-47
2022/01/27 05:06:12;;;;;;;39.22;19.95;;;5.80;99.90;;;;;;5005436;28;20057;-47
2022/01/27 05:08:38;;;;;;;40.35;21.10;;;5.80;99.90;;;;;;4997298;28;20050;-46
2022/01/27 05:11:21;;;;;;;48.90;20.63;;;5.80;99.90;;;;;;5008574;28;20042;-50
2022/01/27 05:13:53;;;;;;;41.58;20.05;;;5.90;99.90;;;;;;4998915;28;20657;-58
2022/01/27 05:16:19;;;;;;;45.53;21.13;;;5.90;99.90;;;;;;5010708;28;20561;-46
2022/01/27 05:18:45;;;;;;;40.00;20.10;;;5.90;99.90;;;;;;5003747;28;20062;-46
2022/01/27 05:21:11;;;;;;;46.75;20.58;;;5.90;99.90;;;;;;5005293;28;20477;-46
2022/01/27 05:23:36;;;;;;;39.42;20.65;;;5.90;99.90;;;;;;5004230;28;20691;-48
2022/01/27 05:26:02;;;;;;;45.75;20.65;;;5.90;99.90;;;;;;5001462;28;20522;-46
2022/01/27 05:28:28;;;;;;;49.28;20.95;;;5.90;99.90;;;;;;5003791;28;20042;-48
2022/01/27 05:30:54;;;;;;;48.55;21.00;;;5.90;99.90;;;;;;5004936;28;20049;-46
2022/01/27 05:33:20;;;;;;;44.13;20.58;;;5.80;99.90;;;;;;4999462;28;20041;-49
2022/01/27 05:35:46;;;;;;;44.45;20.50;;;5.90;99.90;;;;;;5009304;28;20062;-48
2022/01/27 05:38:16;;;;;;;52.83;21.88;;;5.80;99.90;;;;;;5004932;28;20057;-47
2022/01/27 05:40:43;;;;;;;39.78;19.85;;;5.80;99.90;;;;;;5004484;28;20464;-47
2022/01/27 05:43:11;;;;;;;43.92;20.75;;;5.80;99.90;;;;;;5005048;28;20436;-46
2022/01/27 05:45:38;;;;;;;41.45;20.40;;;5.80;99.90;;;;;;5000322;28;20341;-49
2022/01/27 05:48:04;;;;;;;43.65;19.33;;;5.80;99.90;;;;;;5000265;28;20141;-47
2022/01/27 05:50:29;;;;;;;44.22;18.67;;;5.80;99.90;;;;;;5000841;28;20527;-46
2022/01/27 05:52:55;;;;;;;42.80;17.98;;;5.90;99.90;;;;;;5003295;28;20057;-48
2022/01/27 05:55:21;;;;;;;41.80;18.13;;;5.90;99.90;;;;;;5001934;28;20141;-46
2022/01/27 05:57:47;;;;;;;44.78;19.58;;;5.90;99.90;;;;;;5004161;28;20089;-48
2022/01/27 06:00:13;;;;;;;42.97;18.38;;;5.90;99.90;;;;;;5003388;28;20048;-47
2022/01/27 06:02:39;;;;;;;38.40;17.58;;;5.90;99.90;;;;;;5004037;28;20492;-47
2022/01/27 06:05:05;;;;;;;46.88;19.35;;;6.00;99.90;;;;;;5003778;28;20413;-48
2022/01/27 06:07:31;;;;;;;40.65;18.20;;;6.00;99.90;;;;;;4996011;28;20499;-47
2022/01/27 06:09:57;;;;;;;42.25;19.52;;;6.00;99.90;;;;;;5003130;28;20065;-48
2022/01/27 06:12:24;;;;;;;48.53;20.33;;;6.00;99.90;;;;;;5004613;28;20045;-47
2022/01/27 06:14:50;;;;;;;51.55;20.23;;;6.00;99.90;;;;;;5006330;28;20107;-47
2022/01/27 06:17:16;;;;;;;54.00;20.95;;;6.00;99.90;;;;;;5004700;28;20077;-47
2022/01/27 06:19:44;;;;;;;50.83;21.45;;;6.00;99.90;;;;;;5006684;28;20061;-49
2022/01/27 06:22:11;;;;;;;47.25;20.02;;;6.00;99.90;;;;;;5005844;28;20053;-48
2022/01/27 06:24:42;;;;;;;52.70;19.80;;;6.00;99.90;;;;;;5002661;28;20144;-48
2022/01/27 06:27:10;;;;;;;48.78;20.70;;;6.10;99.90;;;;;;4999407;28;20050;-50
2022/01/27 06:29:36;;;;;;;53.75;22.10;;;6.00;99.90;;;;;;5001208;28;20050;-47
2022/01/27 06:32:02;;;;;;;51.97;22.52;;;6.00;99.90;;;;;;5002813;28;20041;-47
2022/01/27 06:34:28;;;;;;;46.10;19.83;;;6.10;99.90;;;;;;5003075;28;20046;-46
2022/01/27 06:36:54;;;;;;;49.60;20.80;;;6.10;99.90;;;;;;5002603;28;20061;-46
2022/01/27 06:39:20;;;;;;;52.33;22.85;;;6.10;99.90;;;;;;5002777;28;20072;-46
2022/01/27 06:41:47;;;;;;;47.08;20.65;;;6.10;99.90;;;;;;5001326;28;20053;-47
2022/01/27 06:44:12;;;;;;;50.95;22.00;;;6.20;99.90;;;;;;5002752;28;20049;-46
2022/01/27 06:46:38;;;;;;;57.70;22.08;;;6.10;99.90;;;;;;5003087;28;20054;-46
2022/01/27 06:49:05;;;;;;;51.30;22.42;;;6.10;99.90;;;;;;4984116;28;20050;-47
2022/01/27 06:51:32;;;;;;;53.85;24.58;;;6.20;99.90;;;;;;5000658;28;20118;-46
2022/01/27 06:53:59;;;;;;;45.90;21.75;;;6.20;99.90;;;;;;5001909;28;20135;-46
2022/01/27 06:56:25;;;;;;;56.05;23.02;;;6.20;99.90;;;;;;5002793;28;20053;-48
2022/01/27 06:58:52;;;;;;;160.68;30.27;;;6.30;99.90;;;;;;5001768;28;20081;-47
2022/01/27 07:01:18;;;;;;;51.35;22.17;;;6.20;99.90;;;;;;5003051;28;20546;-46
2022/01/27 07:03:44;;;;;;;52.65;22.70;;;6.20;99.90;;;;;;5001850;28;20050;-46
2022/01/27 07:06:11;;;;;;;48.58;20.85;;;6.20;99.90;;;;;;5003105;28;20111;-48
2022/01/27 07:08:36;;;;;;;59.20;21.40;;;6.20;99.90;;;;;;4992939;28;20523;-47
2022/01/27 07:11:02;;;;;;;58.45;21.08;;;6.20;99.90;;;;;;5001919;28;20114;-47
2022/01/27 07:13:28;;;;;;;52.60;21.80;;;6.30;99.90;;;;;;4995775;28;20108;-47
2022/01/27 07:15:55;;;;;;;61.40;21.42;;;6.20;99.90;;;;;;5007775;28;20548;-46
2022/01/27 07:18:21;;;;;;;56.42;22.23;;;6.30;99.90;;;;;;5003317;28;20057;-47
2022/01/27 07:20:47;;;;;;;58.47;21.65;;;6.20;99.90;;;;;;5002786;28;20709;-47
2022/01/27 07:23:12;;;;;;;55.47;22.92;;;6.20;99.90;;;;;;5001410;28;20099;-49
2022/01/27 07:25:38;;;;;;;44.38;19.48;;;6.20;99.90;;;;;;5002318;28;20096;-49
2022/01/27 07:28:04;;;;;;;51.20;20.08;;;6.20;99.90;;;;;;5003507;28;20053;-48
2022/01/27 07:30:30;;;;;;;55.35;19.55;;;6.30;99.90;;;;;;5001977;28;20050;-48
2022/01/27 07:32:56;;;;;;;57.72;20.13;;;6.30;99.90;;;;;;4998260;28;20056;-47
2022/01/27 07:35:21;;;;;;;54.33;20.38;;;6.30;99.90;;;;;;5001711;28;20579;-49
2022/01/27 07:37:47;;;;;;;54.65;19.75;;;6.30;99.90;;;;;;4998696;28;20050;-50
2022/01/27 07:40:16;;;;;;;75.43;22.95;;;6.30;99.90;;;;;;5002486;28;20514;-53
2022/01/27 07:42:41;;;;;;;42.78;18.95;;;6.40;99.90;;;;;;5002222;28;20637;-46
2022/01/27 07:45:08;;;;;;;51.70;19.20;;;6.40;99.90;;;;;;4995170;28;20045;-48
2022/01/27 07:47:34;;;;;;;48.92;18.70;;;6.40;99.90;;;;;;5002176;28;20133;-46
2022/01/27 07:50:00;;;;;;;48.55;17.75;;;6.40;99.90;;;;;;5001254;28;20150;-48
2022/01/27 07:52:26;;;;;;;46.72;18.52;;;6.40;99.90;;;;;;5000909;28;20052;-47
2022/01/27 07:54:52;;;;;;;41.38;15.93;;;6.50;99.90;;;;;;4982702;28;20062;-46
2022/01/27 07:57:18;;;;;;;44.22;16.80;;;6.50;99.90;;;;;;5001429;28;20041;-48
2022/01/27 07:59:44;;;;;;;38.08;16.45;;;6.60;99.90;;;;;;5000580;28;20504;-49
2022/01/27 08:02:10;;;;;;;44.45;16.65;;;6.60;99.90;;;;;;5002903;28;20129;-49
2022/01/27 08:04:36;;;;;;;42.63;15.00;;;6.60;99.90;;;;;;5001517;28;20053;-47
2022/01/27 08:07:02;;;;;;;31.63;14.55;;;6.60;99.90;;;;;;5002289;28;20172;-46
2022/01/27 08:09:29;;;;;;;39.25;15.50;;;6.70;99.90;;;;;;5000921;28;20527;-46
2022/01/27 08:11:55;;;;;;;37.35;13.73;;;6.70;99.90;;;;;;4999382;28;20077;-47
2022/01/27 08:14:21;;;;;;;37.40;15.02;;;6.80;99.90;;;;;;4997689;28;20586;-47
2022/01/27 08:16:47;;;;;;;30.85;14.02;;;6.80;99.90;;;;;;5002867;28;20049;-47
2022/01/27 08:19:12;;;;;;;35.60;13.85;;;6.80;99.90;;;;;;5001798;28;20097;-46
2022/01/27 08:21:41;;;;;;;31.63;13.52;;;6.80;99.90;;;;;;5001583;28;20046;-47
2022/01/27 08:24:07;;;;;;;35.85;14.60;;;6.80;99.90;;;;;;5000674;28;20037;-47
2022/01/27 08:29:23;;;;;;;40.45;13.15;;;6.90;99.90;;;;;;4999736;28;20072;-47
2022/01/27 08:34:35;;;;;;;28.80;11.85;;;7.00;99.90;;;;;;5000722;28;20526;-48
2022/01/27 08:37:14;;;;;;;33.05;12.82;;;7.10;99.90;;;;;;4997743;28;20057;-48
2022/01/27 08:39:40;;;;;;;33.17;12.23;;;7.20;99.90;;;;;;5001734;28;20038;-49
2022/01/27 08:42:07;;;;;;;34.47;11.93;;;7.20;99.90;;;;;;5001150;28;20045;-47
2022/01/27 08:44:34;;;;;;;31.77;11.55;;;7.30;99.90;;;;;;5005058;28;20046;-47
2022/01/27 08:47:00;;;;;;;28.40;11.15;;;7.40;99.90;;;;;;5001334;28;20053;-49
2022/01/27 08:49:27;;;;;;;35.35;11.05;;;7.40;99.90;;;;;;5000737;28;20049;-51
2022/01/27 08:51:54;;;;;;;35.20;10.38;;;7.30;99.90;;;;;;5000338;28;20500;-47
2022/01/27 08:54:20;;;;;;;31.25;11.18;;;7.40;99.90;;;;;;4998409;28;20488;-47
2022/01/27 08:56:46;;;;;;;26.38;9.85;;;7.40;99.90;;;;;;5000950;28;20053;-47
2022/01/27 08:59:12;;;;;;;28.00;10.32;;;7.40;99.90;;;;;;5000460;28;20052;-48
2022/01/27 09:01:40;;;;;;;29.80;10.48;;;7.40;99.90;;;;;;4998339;28;20400;-47
2022/01/27 09:04:08;;;;;;;26.42;9.02;;;7.40;99.90;;;;;;5000579;28;20064;-49
2022/01/27 09:06:34;;;;;;;22.52;9.05;;;7.40;99.90;;;;;;5001245;28;20045;-46
2022/01/27 09:09:01;;;;;;;30.60;8.77;;;7.50;99.90;;;;;;4996223;28;20050;-47
2022/01/27 09:11:31;;;;;;;27.77;8.55;;;7.50;99.90;;;;;;5001635;28;20049;-47
2022/01/27 09:14:02;;;;;;;26.35;8.80;;;7.50;99.90;;;;;;4999848;28;20042;-47
2022/01/27 09:16:29;;;;;;;24.73;8.55;;;7.50;99.90;;;;;;4999475;28;20082;-47
2022/01/27 09:18:57;;;;;;;22.52;7.95;;;7.50;99.90;;;;;;5001144;28;20050;-47
2022/01/27 09:21:39;;;;;;;21.17;9.20;;;7.50;99.90;;;;;;5003491;28;20419;-47
2022/01/27 09:24:06;;;;;;;26.75;8.27;;;7.60;99.90;;;;;;5002819;28;20530;-48
2022/01/27 09:26:59;;;;;;;23.88;7.95;;;7.50;99.90;;;;;;5003357;28;20137;-47
2022/01/27 09:29:25;;;;;;;23.98;8.15;;;7.60;99.90;;;;;;5004754;28;20551;-47
2022/01/27 09:31:52;;;;;;;23.80;7.70;;;7.70;99.90;;;;;;5004893;28;20544;-49
2022/01/27 09:34:18;;;;;;;28.13;7.53;;;7.70;99.90;;;;;;5003031;28;20300;-47
2022/01/27 09:36:46;;;;;;;20.77;7.95;;;7.70;99.90;;;;;;5000216;28;20488;-47
2022/01/27 09:39:12;;;;;;;27.80;8.13;;;7.70;99.90;;;;;;5005206;28;20404;-47
2022/01/27 09:41:40;;;;;;;27.60;8.20;;;7.80;99.90;;;;;;5007233;28;20064;-50
2022/01/27 09:44:12;;;;;;;27.05;8.38;;;7.70;99.90;;;;;;5004882;28;20054;-47
2022/01/27 09:46:43;;;;;;;31.55;8.48;;;7.80;99.90;;;;;;5002780;28;20057;-46
2022/01/27 09:49:18;;;;;;;29.15;8.55;;;7.80;99.90;;;;;;5000932;28;20137;-48
2022/01/27 09:51:47;;;;;;;30.83;8.80;;;7.90;99.90;;;;;;4980127;28;20077;-47
2022/01/27 09:54:14;;;;;;;19.35;7.00;;;7.90;99.90;;;;;;5003627;28;20056;-47
2022/01/27 09:56:41;;;;;;;24.23;8.10;;;7.90;99.90;;;;;;5007039;28;20038;-47
2022/01/27 09:59:08;;;;;;;24.75;7.95;;;7.90;99.90;;;;;;5004383;28;20050;-50
2022/01/27 10:01:34;;;;;;;26.52;9.02;;;7.90;99.90;;;;;;5005441;28;20064;-50
2022/01/27 10:04:05;;;;;;;32.38;8.02;;;7.90;99.90;;;;;;5002386;28;20058;-48
2022/01/27 10:06:33;;;;;;;26.00;7.45;;;7.90;99.90;;;;;;5001749;28;20052;-50
2022/01/27 10:09:11;;;;;;;26.35;7.82;;;8.00;99.90;;;;;;4999601;28;20037;-48
2022/01/27 10:11:37;;;;;;;23.05;8.07;;;8.10;99.90;;;;;;5003057;28;20096;-50
2022/01/27 10:14:38;;;;;;;26.80;8.07;;;8.10;99.90;;;;;;4997536;28;20081;-48
2022/01/27 10:17:13;;;;;;;29.70;8.57;;;8.10;99.90;;;;;;4922470;29;20056;-47
2022/01/27 10:19:39;;;;;;;27.40;7.40;;;8.10;99.90;;;;;;4895477;29;20060;-47
2022/01/27 10:22:09;;;;;;;21.42;6.68;;;8.10;99.90;;;;;;4922799;29;20055;-47
2022/01/27 10:24:36;;;;;;;30.98;7.65;;;8.10;99.90;;;;;;4907458;29;20056;-50
2022/01/27 10:32:37;;;;;;;23.48;7.40;;;8.00;99.90;;;;;;4922566;29;20434;-47
2022/01/27 10:35:04;;;;;;;25.98;8.07;;;8.00;99.90;;;;;;4922465;29;20142;-47
2022/01/27 10:37:55;;;;;;;25.48;7.07;;;8.00;99.90;;;;;;4921811;29;20071;-48
2022/01/27 10:40:31;;;;;;;23.13;6.53;;;8.10;99.90;;;;;;4921746;29;20158;-47
2022/01/27 10:42:59;;;;;;;22.30;5.97;;;8.10;99.90;;;;;;4923948;29;20519;-46
2022/01/27 10:45:25;;;;;;;24.98;6.38;;;8.20;99.90;;;;;;4924085;29;20052;-47
2022/01/27 10:47:51;;;;;;;29.50;7.95;;;8.20;99.90;;;;;;4925473;29;20063;-46
2022/01/27 10:50:22;;;;;;;20.52;5.88;;;8.30;99.90;;;;;;4924490;29;20048;-47
2022/01/27 10:52:52;;;;;;;21.35;6.07;;;8.30;99.90;;;;;;4959245;28;20065;-47
2022/01/27 10:55:20;;;;;;;22.80;6.57;;;8.40;99.90;;;;;;5003859;28;20104;-47
2022/01/27 10:57:50;;;;;;;25.92;6.07;;;8.40;99.90;;;;;;5002392;28;20057;-49
2022/01/27 11:00:24;;;;;;;22.15;6.03;;;8.50;99.90;;;;;;5001007;28;20061;-46
2022/01/27 11:02:52;;;;;;;;;;;8.60;99.90;;;;;;5000725;28;20046;-47
2022/01/27 11:05:27;;;;;;;26.15;6.13;;;8.60;99.90;;;;;;5003174;28;19925;-47
2022/01/27 11:07:53;;;;;;;22.63;6.65;;;8.60;99.90;;;;;;4996795;28;20054;-47
2022/01/27 11:10:20;;;;;;;20.80;6.05;;;8.60;99.90;;;;;;5004466;28;20050;-50
2022/01/27 11:12:46;;;;;;;22.58;6.30;;;8.60;99.90;;;;;;5004474;28;20053;-47
2022/01/27 11:15:18;;;;;;;26.67;6.30;;;8.60;99.90;;;;;;5007432;28;20124;-48
2022/01/27 11:17:45;;;;;;;23.38;6.05;;;8.60;99.90;;;;;;5022898;28;20145;-50
2022/01/27 11:27:53;;;;;;;24.50;6.53;;;8.70;99.90;;;;;;5023454;28;20060;-48
2022/01/27 11:30:44;;;;;;;19.23;5.57;;;8.70;99.90;;;;;;5022403;28;20045;-48
2022/01/27 11:33:14;;;;;;;20.48;5.88;;;8.70;99.90;;;;;;5021989;28;20407;-48
2022/01/27 11:35:41;;;;;;;26.38;6.20;;;8.70;99.90;;;;;;5021492;28;20118;-50
2022/01/27 11:38:08;;;;;;;28.65;5.93;;;8.80;99.90;;;;;;5021606;28;20064;-50
2022/01/27 11:40:43;;;;;;;17.45;4.90;;;8.80;99.90;;;;;;5019687;28;20060;-47
2022/01/27 11:43:10;;;;;;;23.48;5.25;;;8.80;99.90;;;;;;5006498;28;20278;-47
2022/01/27 11:45:38;;;;;;;22.83;5.85;;;8.80;99.90;;;;;;5000195;28;20080;-48
2022/01/27 11:48:30;;;;;;;29.10;5.57;;;8.80;99.90;;;;;;5001482;28;20475;-47
2022/01/27 11:51:15;;;;;;;24.25;5.20;;;8.80;99.90;;;;;;4999929;28;20060;-48
2022/01/27 11:53:51;;;;;;;24.80;6.32;;;8.90;99.90;;;;;;4998263;28;20100;-47
2022/01/27 11:56:30;;;;;;;26.23;6.22;;;8.80;99.90;;;;;;5000184;28;20042;-48
2022/01/27 11:59:01;;;;;;;25.70;5.75;;;8.90;99.90;;;;;;5000702;28;20085;-48
2022/01/27 12:01:33;;;;;;;22.75;5.85;;;8.90;99.90;;;;;;4999923;28;20130;-47
2022/01/27 12:04:06;;;;;;;23.67;5.10;;;8.90;99.90;;;;;;5000690;28;20038;-47
2022/01/27 12:06:35;;;;;;;20.17;5.37;;;8.90;99.90;;;;;;4999247;28;20068;-47
2022/01/27 12:09:31;;;;;;;25.17;6.47;;;8.90;99.90;;;;;;4996626;28;20333;-48
2022/01/27 12:12:00;;;;;;;22.33;6.63;;;8.90;99.90;;;;;;4933361;28;20492;-49
2022/01/27 12:14:39;;;;;;;19.33;4.78;;;8.90;99.90;;;;;;4940765;29;20059;-47
2022/01/27 12:17:12;;;;;;;22.05;4.60;;;8.90;99.90;;;;;;4936132;29;20089;-47
2022/01/27 12:20:18;;;;;;;24.53;4.83;;;8.90;99.90;;;;;;4941143;29;20093;-48
2022/01/27 12:22:46;;;;;;;23.23;5.05;;;8.90;99.90;;;;;;4853171;29;20822;-49
2022/01/27 12:25:14;;;;;;;22.25;4.70;;;8.90;99.90;;;;;;4847773;29;20050;-49
2022/01/27 12:27:41;;;;;;;23.20;4.90;;;9.00;99.90;;;;;;4839289;29;20505;-49
2022/01/27 12:30:11;;;;;;;26.77;5.57;;;9.00;99.90;;;;;;4846094;29;20532;-49
2022/01/27 12:32:37;;;;;;;15.88;4.38;;;9.00;99.90;;;;;;4850760;29;20152;-48
2022/01/27 12:35:07;;;;;;;22.27;5.05;;;9.00;99.90;;;;;;4850773;29;20128;-51
2022/01/27 12:37:35;;;;;;;21.13;4.82;;;9.00;99.90;;;;;;4850916;29;20100;-49
2022/01/27 12:40:17;;;;;;;23.35;5.65;;;9.10;99.90;;;;;;4853754;29;20541;-48
2022/01/27 12:43:15;;;;;;;28.15;6.05;;;9.10;99.90;;;;;;4834702;29;20061;-48
2022/01/27 12:45:43;;;;;;;19.85;4.93;;;9.10;99.90;;;;;;4850311;29;20065;-48
2022/01/27 12:48:13;;;;;;;20.10;4.38;;;9.10;99.90;;;;;;4881438;29;20531;-48
2022/01/27 12:50:39;;;;;;;25.95;5.28;;;9.00;99.90;;;;;;4921160;29;20087;-48
2022/01/27 12:53:13;;;;;;;22.73;5.40;;;9.00;99.90;;;;;;4946555;28;20145;-48
2022/01/27 12:55:42;;;;;;;26.58;5.65;;;9.00;99.90;;;;;;5002183;28;20496;-48
2022/01/27 12:58:10;;;;;;;28.30;5.40;;;9.00;99.90;;;;;;5004931;28;20045;-50
2022/01/27 13:00:36;;;;;;;24.95;4.65;;;9.00;99.90;;;;;;5006384;28;20049;-49
2022/01/27 13:03:03;;;;;;;25.50;4.55;;;9.00;99.90;;;;;;4999807;28;20052;-48
2022/01/27 13:05:37;;;;;;;24.77;4.22;;;9.00;99.90;;;;;;5003821;28;20060;-48
2022/01/27 13:08:11;;;;;;;29.23;5.78;;;9.00;99.90;;;;;;4990877;28;20133;-48
2022/01/27 13:10:38;;;;;;;24.92;5.32;;;9.00;99.90;;;;;;5005240;28;20153;-47
2022/01/27 13:13:18;;;;;;;22.23;4.22;;;9.10;99.90;;;;;;5004706;28;20492;-47
2022/01/27 13:15:45;;;;;;;21.98;4.47;;;9.10;99.90;;;;;;5011141;28;20646;-48
2022/01/27 13:18:17;;;;;;;24.90;5.68;;;9.10;99.90;;;;;;5005156;28;20655;-48
2022/01/27 13:20:47;;;;;;;29.35;4.30;;;9.10;99.90;;;;;;5005381;28;20041;-48
2022/01/27 13:23:20;;;;;;;22.05;5.07;;;9.00;99.90;;;;;;4994243;28;20398;-48
2022/01/27 13:25:48;;;;;;;;;;;9.00;99.90;;;;;;5007358;28;21105;-48
2022/01/27 13:28:23;;;;;;;27.95;6.05;;;9.00;99.90;;;;;;5005392;28;19929;-50
2022/01/27 13:31:00;;;;;;;33.72;5.18;;;8.90;99.90;;;;;;5000481;28;20050;-50
2022/01/27 13:33:27;;;;;;;26.98;5.32;;;8.90;99.90;;;;;;5004893;28;20140;-49
2022/01/27 13:35:55;;;;;;;34.28;5.00;;;8.90;99.90;;;;;;5007467;28;20165;-49
2022/01/27 13:38:29;;;;;;;23.42;5.68;;;8.80;99.90;;;;;;5006023;28;20442;-50
2022/01/27 13:41:22;;;;;;;26.00;5.53;;;8.80;99.90;;;;;;4999183;28;20080;-50
2022/01/27 13:44:07;;;;;;;28.00;4.70;;;8.80;99.90;;;;;;5004584;28;20053;-48
2022/01/27 13:46:46;;;;;;;28.30;5.63;;;8.80;99.90;;;;;;5003095;28;20489;-48
2022/01/27 13:49:19;;;;;;;21.13;4.68;;;8.80;99.90;;;;;;4997570;28;20060;-49
2022/01/27 13:51:51;;;;;;;22.13;5.10;;;8.80;99.90;;;;;;5004572;28;20076;-50
2022/01/27 13:54:17;;;;;;;27.60;5.05;;;8.90;99.90;;;;;;5005317;28;20044;-48
2022/01/27 13:56:47;;;;;;;22.15;5.25;;;8.90;99.90;;;;;;5004356;28;20103;-49
2022/01/27 13:59:16;;;;;;;24.52;5.03;;;8.90;99.90;;;;;;4986852;28;20050;-48
2022/01/27 14:01:43;;;;;;;27.95;4.95;;;8.90;99.90;;;;;;5008954;28;20100;-48